Currently 76°F in French Valley, California, USA
76°F
93°F / 67°F
6 mph S
0.00"
Sunday, August 19, 2018 8:09 PM PDT

French Valley, California Weather Summary
Last 36 Hours

Temperature Winds Hourly Humidity Dewpoint
Time Report Norm Report Norm Max Gusts Precip. Rpt. Norm Rpt. Norm Pressure
1Sun 08:09 PM  76.2°F  76°F  6 mph S  4 mph  8 mph  0.00"  71%  60%  66°F  60°F  29.93"
Sun 08:00 PM  76.2°F  76°F  5 mph SE  4 mph  14 mph  0.00"  70%  59%  66°F  60°F  29.93"
Sun 07:00 PM  79.4°F  80°F  8 mph SE  6 mph  14 mph  0.00"  63%  51%  65°F  60°F  29.93"
Sun 06:00 PM  84.0°F  84°F  10 mph SE  8 mph  14 mph  0.00"  52%  44%  64°F  59°F  29.93"
Sun 05:00 PM  86.2°F  87°F  6 mph S  8 mph  16 mph  0.00"  47%  39%  63°F  58°F  29.93"
Sun 04:00 PM  87.4°F  89°F  10 mph S  8 mph  17 mph  0.00"  48%  36%  65°F  58°F  29.92"
Sun 03:00 PM  90.1°F  90°F  11 mph S  8 mph  16 mph  0.00"  43%  35%  64°F  58°F  29.94"
Sun 02:00 PM  91.5°F  90°F  8 mph SW  7 mph  14 mph  0.00"  42%  34%  65°F  57°F  29.96"
2Sun 01:40 PM  92.7°F  90°F  4 mph SW  6 mph  10 mph  ----  40%  34%  64°F  57°F  29.97"
Sun 01:00 PM  91.4°F  89°F  3 mph SW  5 mph  12 mph  0.00"  41%  35%  64°F  57°F  29.98"
Sun 12:00 PM  88.5°F  87°F  5 mph SE  4 mph  9 mph  0.00"  45%  38%  64°F  58°F  30.00"
Sun 11:00 AM  86.4°F  84°F  4 mph W  3 mph  7 mph  0.00"  48%  44%  64°F  59°F  30.02"
Sun 10:00 AM  80.4°F  79°F  3 mph S  2 mph  6 mph  0.00"  60%  54%  65°F  61°F  30.04"
Sun 09:00 AM  75.3°F  74°F  1 mph S  1 mph  5 mph  0.00"  73%  65%  66°F  61°F  30.05"
Sun 08:00 AM  70.7°F  70°F  calm  1 mph  none  0.00"  87%  73%  66°F  60°F  30.05"
Sun 07:00 AM  67.3°F  66°F  calm  calm  none  0.00"  91%  79%  65°F  59°F  30.04"
3Sun 06:32 AM  67.0°F  65°F  calm  calm  none  ----  91%  79%  64°F  58°F  30.04"
Sun 06:00 AM  67.3°F  65°F  calm  calm  4 mph  0.00"  91%  79%  64°F  58°F  30.04"
Sun 05:00 AM  67.3°F  66°F  3 mph SE  calm  6 mph  0.00"  90%  78%  64°F  58°F  30.03"
Sun 04:00 AM  67.3°F  66°F  3 mph E  calm  5 mph  0.00"  90%  77%  64°F  59°F  30.03"
Sun 03:00 AM  68.4°F  67°F  3 mph SE  calm  4 mph  0.00"  85%  77%  64°F  59°F  30.03"
Sun 02:00 AM  70.4°F  67°F  calm  calm  none  0.00"  80%  76%  64°F  60°F  30.03"
Sun 01:00 AM  70.7°F  68°F  calm  1 mph  5 mph  0.00"  78%  75%  63°F  60°F  30.04"
Sun 12:00 AM  71.9°F  69°F  2 mph SE  1 mph  6 mph  0.00"  75%  74%  63°F  60°F  30.04"
Sat 11:00 PM  73.8°F  71°F  2 mph S  1 mph  4 mph  0.00"  72%  71%  64°F  61°F  30.04"
Sat 10:00 PM  74.6°F  72°F  3 mph SE  1 mph  6 mph  0.00"  69%  68%  63°F  61°F  30.05"
Sat 09:00 PM  76.2°F  74°F  2 mph S  3 mph  8 mph  0.00"  66%  65%  64°F  61°F  30.04"
Sat 08:00 PM  77.4°F  76°F  6 mph SE  4 mph  12 mph  0.00"  62%  60%  63°F  61°F  30.03"
Sat 07:00 PM  80.5°F  80°F  6 mph S  7 mph  16 mph  0.00"  54%  51%  62°F  60°F  30.03"
Sat 06:00 PM  84.2°F  84°F  10 mph S  7 mph  18 mph  0.00"  51%  44%  63°F  59°F  30.03"
Sat 05:00 PM  87.4°F  87°F  9 mph S  8 mph  16 mph  0.00"  49%  39%  65°F  58°F  30.04"
Sat 04:00 PM  89.2°F  89°F  8 mph S  8 mph  16 mph  0.00"  48%  36%  66°F  58°F  30.04"
Sat 03:00 PM  90.2°F  90°F  10 mph S  7 mph  14 mph  0.00"  47%  35%  67°F  58°F  30.04"
Sat 02:00 PM  91.2°F  90°F  6 mph SW  7 mph  13 mph  0.00"  47%  34%  67°F  57°F  30.06"
Sat 01:00 PM  88.8°F  89°F  6 mph SW  5 mph  12 mph  0.00"  50%  35%  67°F  57°F  30.09"
Sat 12:00 PM  86.2°F  87°F  5 mph W  4 mph  11 mph  0.00"  54%  38%  67°F  58°F  30.12"
Sat 11:00 AM  81.6°F  84°F  7 mph S  3 mph  8 mph  0.00"  67%  44%  69°F  59°F  30.15"
Sat 10:00 AM  79.2°F  79°F  calm  2 mph  7 mph  0.00"  74%  54%  70°F  61°F  30.15"
Sat 09:00 AM  74.9°F  74°F  1 mph SW  1 mph  6 mph  0.00"  84%  65%  70°F  61°F  30.15"

  1. Current weather data. No green row appears if the current weather data is also the high or low for the current day.
  2. High temperature for the current day.
  3. Low temperature for the current day.

The French Valley, California weather pages are a service of WeatherCurrents. French Valley is located in southwestern Riverside County, California, north of Temecula, east of Murrieta, and south of Winchester. French Valley is bordered by Lake Skinner.
Copyright ©Sun Aug 19 20:09:59 PDT 2018  WeatherCurrents. All rights reserved. - Submit questions and comments - Privacy Policy

This page automatically refreshes every 10 minutes.